Sutherland Springs, Texas
Current Conditions -  °F | °C
As of 6:58 AM on Friday 31 Oct 2014 (Local Time) from KRND Reporting Station
Clear Clear  
Wind Chill: 18°   Ceiling: Unl
Heat Index: 18°   Visibility: 10mi
Dew Point: 15°   Wind: 8mph
Humidity: 86%   Direction: 10°N
Pressure: 30.18"   Gusts: NA
Location:  29.27°N, 98.06°W
Report Text: KRND 311158Z AUTO 01007KT 10SM CLR 18/15 A3018 RMK AO2 SLP214 60044 70044 T01770154 10199 20177 52014
Loading
Personal Weather Stations






























Interactive Weather Map
Tropical Storm Tracking
New forecast layout! Learn more

10-Day Weather Forecast

Advertisements
Track Severe Weather on mobile